Detall de PIREP

Printer-friendly versionPDF version

[2014/06/13 17:19:00]
Flight IATA:CT2202
Pilot Number:044
Company ICAO:CAT
Aircraft Type:F100/A
PAX:99
Aircraft Registration:PFJ
Departing Airport: LFMP
Destination Airport: LFBD
Alternate Airport:LFBG
Online: VATSIM
Route:ORBIL G36 GAI G39 SECHE R17 MIRBA
Flight Level:F180
No Slew and time accel
No pause
Crash detect
Detect pilot in Cockpit between each 30 and 45 minutes
17:19 Zero fuel Weight: 81225 Lbs, Fuel Weight: 7793 Lbs
17:19 VATSIM:LFMP 131700Z 32012KT 9999 SCT050CB SCT250 33/15 Q1014 NOSIG
17:19 VATSIM:LFBD 131700Z AUTO 33011KT 310V010 9999 NSC 29/17 Q1018
17:20 Parking Brakes off
17:30 Take-off
17:30 Take off Weight: 88525 Lbs
17:30 Wind: 322º @ 012 Knots Heading: 148º
17:30 POS N42º 44´ 20´´ E002º 52´ 28´´
17:30 Flaps:1 at 177 Knots
17:30 Gear Up: 184 Knots
17:30 Flaps:0 at 189 Knots
17:39 TOC
17:39 Fuel Weight: 6182 Lb
17:45 Wind:309º@050 Knots Heading: 324º Ground Speed: 311 Knots Altitude 18100 ft
18:00 Wind:286º@021 Knots Heading: 286º Ground Speed: 341 Knots Altitude 18100 ft
18:05 TOD
18:05 Fuel Weight: 4180 Lb
18:15 Wind:321º@026 Knots Heading: 238º Ground Speed: 271 Knots Altitude 9642 ft
18:24 Flaps:1 at 218 Knots
18:25 Flaps:2 at 182 Knots
18:26 Flaps:3 at 146 Knots
18:26 Gear Down: 139 Knots
18:29 Flaps:4 at 151 Knots
18:30 Wind:323º@011 Knots Heading: 291º Ground Speed: 114 Knots Altitude 242 ft
18:30 TouchDown:Rate -313 ft/min Speed: 113 Knots
18:30 VATSIM:LFBD 131800Z AUTO 32011KT 9999 NSC 27/16 Q1018
18:30 Land
18:30 Wind:324º@011 Knots
18:30 Heading: 285º
18:30 Flight Duration: 01:00
18:30 Landing Weight: 84190 Lbs
18:30 POS N44º 49´ 43´´ W000º 43´ 02´´
18:36 Parking brakes on
18:36 Block to Block Duration: 01:16
18:36 Final Fuel: 2742 Lbls
18:36 Spent Fuel: 5050 Lbls
18:36 Flight Length: 275 NM
18:36 TOD Land Length: 102 NM

Exportar CSV

Powered by Drupal - Modified by Danger4k